sensor_id;sensor_type;location;lat;lon;timestamp;P1;durP1;ratioP1;P2;durP2;ratioP2
19414;SDS011;9843;48.882;12.592;2022-10-17T00:00:42;11.63;;;9.53;;
19414;SDS011;9843;48.882;12.592;2022-10-17T00:03:09;16.90;;;11.07;;
19414;SDS011;9843;48.882;12.592;2022-10-17T00:05:39;15.53;;;10.93;;
19414;SDS011;9843;48.882;12.592;2022-10-17T00:08:06;15.37;;;10.37;;
19414;SDS011;9843;48.882;12.592;2022-10-17T00:10:37;19.10;;;11.60;;
19414;SDS011;9843;48.882;12.592;2022-10-17T00:13:04;19.70;;;12.53;;
19414;SDS011;9843;48.882;12.592;2022-10-17T00:15:31;19.20;;;12.47;;
19414;SDS011;9843;48.882;12.592;2022-10-17T00:17:58;19.27;;;11.23;;
19414;SDS011;9843;48.882;12.592;2022-10-17T00:20:26;19.10;;;12.33;;
19414;SDS011;9843;48.882;12.592;2022-10-17T00:22:54;24.23;;;16.17;;
19414;SDS011;9843;48.882;12.592;2022-10-17T00:25:21;35.30;;;18.70;;
19414;SDS011;9843;48.882;12.592;2022-10-17T00:27:49;32.87;;;18.13;;
19414;SDS011;9843;48.882;12.592;2022-10-17T00:30:16;29.10;;;16.57;;
19414;SDS011;9843;48.882;12.592;2022-10-17T00:32:43;26.97;;;14.00;;
19414;SDS011;9843;48.882;12.592;2022-10-17T00:35:10;28.00;;;12.80;;
19414;SDS011;9843;48.882;12.592;2022-10-17T00:37:36;13.60;;;10.17;;
19414;SDS011;9843;48.882;12.592;2022-10-17T00:40:03;14.03;;;8.67;;
19414;SDS011;9843;48.882;12.592;2022-10-17T00:42:31;11.53;;;8.63;;
19414;SDS011;9843;48.882;12.592;2022-10-17T00:45:05;16.20;;;8.33;;
19414;SDS011;9843;48.882;12.592;2022-10-17T00:47:40;14.17;;;9.50;;
19414;SDS011;9843;48.882;12.592;2022-10-17T00:50:09;16.60;;;9.30;;
19414;SDS011;9843;48.882;12.592;2022-10-17T00:52:37;12.13;;;8.87;;
19414;SDS011;9843;48.882;12.592;2022-10-17T00:55:06;10.30;;;8.57;;
19414;SDS011;9843;48.882;12.592;2022-10-17T00:57:37;12.10;;;8.47;;
19414;SDS011;9843;48.882;12.592;2022-10-17T01:00:07;20.43;;;8.57;;
19414;SDS011;9843;48.882;12.592;2022-10-17T01:02:36;9.67;;;7.50;;
19414;SDS011;9843;48.882;12.592;2022-10-17T01:05:03;10.13;;;7.40;;
19414;SDS011;9843;48.882;12.592;2022-10-17T01:07:32;16.10;;;9.30;;
19414;SDS011;9843;48.882;12.592;2022-10-17T01:10:00;15.90;;;9.87;;
19414;SDS011;9843;48.882;12.592;2022-10-17T01:12:28;11.60;;;9.13;;
19414;SDS011;9843;48.882;12.592;2022-10-17T01:15:07;9.97;;;7.40;;
19414;SDS011;9843;48.882;12.592;2022-10-17T01:17:43;11.13;;;7.33;;
19414;SDS011;9843;48.882;12.592;2022-10-17T01:20:30;9.47;;;7.37;;
19414;SDS011;9843;48.882;12.592;2022-10-17T01:23:27;8.77;;;6.47;;
19414;SDS011;9843;48.882;12.592;2022-10-17T01:26:06;11.97;;;8.07;;
19414;SDS011;9843;48.882;12.592;2022-10-17T01:28:46;11.43;;;7.93;;
19414;SDS011;9843;48.882;12.592;2022-10-17T01:31:32;20.03;;;8.83;;
19414;SDS011;9843;48.882;12.592;2022-10-17T01:34:04;12.37;;;9.27;;
19414;SDS011;9843;48.882;12.592;2022-10-17T01:36:37;18.60;;;11.40;;
19414;SDS011;9843;48.882;12.592;2022-10-17T01:39:11;13.67;;;9.50;;
19414;SDS011;9843;48.882;12.592;2022-10-17T01:41:42;16.43;;;9.90;;
19414;SDS011;9843;48.882;12.592;2022-10-17T01:44:14;12.23;;;7.50;;
19414;SDS011;9843;48.882;12.592;2022-10-17T01:46:48;11.63;;;8.97;;
19414;SDS011;9843;48.882;12.592;2022-10-17T01:49:16;10.30;;;9.20;;
19414;SDS011;9843;48.882;12.592;2022-10-17T01:51:47;10.87;;;7.63;;
19414;SDS011;9843;48.882;12.592;2022-10-17T01:54:19;17.53;;;9.87;;
19414;SDS011;9843;48.882;12.592;2022-10-17T01:56:50;12.20;;;10.77;;
19414;SDS011;9843;48.882;12.592;2022-10-17T01:59:22;16.60;;;11.10;;
19414;SDS011;9843;48.882;12.592;2022-10-17T02:01:53;14.17;;;10.00;;
19414;SDS011;9843;48.882;12.592;2022-10-17T02:04:22;20.53;;;11.87;;
19414;SDS011;9843;48.882;12.592;2022-10-17T02:06:51;14.33;;;11.83;;
19414;SDS011;9843;48.882;12.592;2022-10-17T02:09:19;17.17;;;11.00;;
19414;SDS011;9843;48.882;12.592;2022-10-17T02:11:49;15.33;;;10.57;;
19414;SDS011;9843;48.882;12.592;2022-10-17T02:14:28;13.40;;;10.33;;
19414;SDS011;9843;48.882;12.592;2022-10-17T02:17:07;11.83;;;10.57;;
19414;SDS011;9843;48.882;12.592;2022-10-17T02:19:45;15.73;;;10.20;;
19414;SDS011;9843;48.882;12.592;2022-10-17T02:22:22;13.87;;;10.73;;
19414;SDS011;9843;48.882;12.592;2022-10-17T02:24:58;17.07;;;10.27;;
19414;SDS011;9843;48.882;12.592;2022-10-17T02:27:31;14.50;;;10.27;;
19414;SDS011;9843;48.882;12.592;2022-10-17T02:30:05;13.47;;;9.73;;
19414;SDS011;9843;48.882;12.592;2022-10-17T02:32:39;10.77;;;9.63;;
19414;SDS011;9843;48.882;12.592;2022-10-17T02:35:10;14.93;;;12.47;;
19414;SDS011;9843;48.882;12.592;2022-10-17T02:37:39;13.40;;;10.70;;
19414;SDS011;9843;48.882;12.592;2022-10-17T02:40:09;16.83;;;11.17;;
19414;SDS011;9843;48.882;12.592;2022-10-17T02:42:38;13.43;;;11.20;;
19414;SDS011;9843;48.882;12.592;2022-10-17T02:45:07;10.53;;;9.53;;
19414;SDS011;9843;48.882;12.592;2022-10-17T02:47:36;11.90;;;10.13;;
19414;SDS011;9843;48.882;12.592;2022-10-17T02:50:10;19.03;;;10.60;;
19414;SDS011;9843;48.882;12.592;2022-10-17T02:52:38;13.53;;;10.13;;
19414;SDS011;9843;48.882;12.592;2022-10-17T02:55:13;15.60;;;10.63;;
19414;SDS011;9843;48.882;12.592;2022-10-17T02:57:43;18.43;;;10.60;;
19414;SDS011;9843;48.882;12.592;2022-10-17T03:00:14;12.47;;;9.43;;
19414;SDS011;9843;48.882;12.592;2022-10-17T03:02:45;12.50;;;10.23;;
19414;SDS011;9843;48.882;12.592;2022-10-17T03:05:14;11.33;;;9.40;;
19414;SDS011;9843;48.882;12.592;2022-10-17T03:07:42;11.67;;;9.37;;
19414;SDS011;9843;48.882;12.592;2022-10-17T03:10:09;11.97;;;9.13;;
19414;SDS011;9843;48.882;12.592;2022-10-17T03:12:36;15.60;;;10.10;;
19414;SDS011;9843;48.882;12.592;2022-10-17T03:15:03;13.33;;;9.30;;
19414;SDS011;9843;48.882;12.592;2022-10-17T03:17:30;12.13;;;10.87;;
19414;SDS011;9843;48.882;12.592;2022-10-17T03:19:58;11.00;;;9.23;;
19414;SDS011;9843;48.882;12.592;2022-10-17T03:22:25;11.47;;;9.43;;
19414;SDS011;9843;48.882;12.592;2022-10-17T03:24:52;12.80;;;8.00;;
19414;SDS011;9843;48.882;12.592;2022-10-17T03:27:19;10.00;;;8.57;;
19414;SDS011;9843;48.882;12.592;2022-10-17T03:29:46;10.47;;;8.87;;
19414;SDS011;9843;48.882;12.592;2022-10-17T03:32:13;13.13;;;8.10;;
19414;SDS011;9843;48.882;12.592;2022-10-17T03:34:39;11.43;;;8.33;;
19414;SDS011;9843;48.882;12.592;2022-10-17T03:37:07;11.10;;;9.67;;
19414;SDS011;9843;48.882;12.592;2022-10-17T03:39:34;12.30;;;10.17;;
19414;SDS011;9843;48.882;12.592;2022-10-17T03:42:01;14.43;;;11.50;;
19414;SDS011;9843;48.882;12.592;2022-10-17T03:44:27;17.33;;;12.27;;
19414;SDS011;9843;48.882;12.592;2022-10-17T03:46:54;12.37;;;9.67;;
19414;SDS011;9843;48.882;12.592;2022-10-17T03:49:21;14.73;;;9.30;;
19414;SDS011;9843;48.882;12.592;2022-10-17T03:51:48;12.97;;;8.53;;
19414;SDS011;9843;48.882;12.592;2022-10-17T03:54:16;11.83;;;10.57;;
19414;SDS011;9843;48.882;12.592;2022-10-17T03:56:43;10.93;;;9.23;;
19414;SDS011;9843;48.882;12.592;2022-10-17T03:59:10;10.60;;;8.20;;
19414;SDS011;9843;48.882;12.592;2022-10-17T04:01:38;11.93;;;8.40;;
19414;SDS011;9843;48.882;12.592;2022-10-17T04:04:05;14.47;;;8.77;;
19414;SDS011;9843;48.882;12.592;2022-10-17T04:06:32;9.57;;;8.57;;
19414;SDS011;9843;48.882;12.592;2022-10-17T04:08:59;14.00;;;9.50;;
19414;SDS011;9843;48.882;12.592;2022-10-17T04:11:27;13.17;;;8.67;;
19414;SDS011;9843;48.882;12.592;2022-10-17T04:13:54;17.63;;;9.53;;
19414;SDS011;9843;48.882;12.592;2022-10-17T04:16:23;10.40;;;8.80;;
19414;SDS011;9843;48.882;12.592;2022-10-17T04:18:51;12.17;;;8.50;;
19414;SDS011;9843;48.882;12.592;2022-10-17T04:21:19;10.63;;;7.57;;
19414;SDS011;9843;48.882;12.592;2022-10-17T04:23:46;10.43;;;8.43;;
19414;SDS011;9843;48.882;12.592;2022-10-17T04:26:12;11.20;;;8.07;;
19414;SDS011;9843;48.882;12.592;2022-10-17T04:28:40;10.50;;;8.73;;
19414;SDS011;9843;48.882;12.592;2022-10-17T04:31:09;10.10;;;8.30;;
19414;SDS011;9843;48.882;12.592;2022-10-17T04:33:38;12.80;;;8.37;;
19414;SDS011;9843;48.882;12.592;2022-10-17T04:36:06;10.63;;;7.73;;
19414;SDS011;9843;48.882;12.592;2022-10-17T04:38:35;10.63;;;9.57;;
19414;SDS011;9843;48.882;12.592;2022-10-17T04:41:03;16.60;;;8.83;;
19414;SDS011;9843;48.882;12.592;2022-10-17T04:43:31;14.23;;;10.60;;
19414;SDS011;9843;48.882;12.592;2022-10-17T04:46:01;14.70;;;10.83;;
19414;SDS011;9843;48.882;12.592;2022-10-17T04:48:32;21.57;;;10.60;;
19414;SDS011;9843;48.882;12.592;2022-10-17T04:51:00;16.40;;;10.33;;
19414;SDS011;9843;48.882;12.592;2022-10-17T04:53:29;10.73;;;9.60;;
19414;SDS011;9843;48.882;12.592;2022-10-17T04:55:56;14.97;;;11.00;;
19414;SDS011;9843;48.882;12.592;2022-10-17T04:58:23;16.73;;;10.80;;
19414;SDS011;9843;48.882;12.592;2022-10-17T05:00:50;12.20;;;10.93;;
19414;SDS011;9843;48.882;12.592;2022-10-17T05:03:18;12.87;;;10.70;;
19414;SDS011;9843;48.882;12.592;2022-10-17T05:05:46;15.37;;;10.27;;
19414;SDS011;9843;48.882;12.592;2022-10-17T05:08:12;13.70;;;11.67;;
19414;SDS011;9843;48.882;12.592;2022-10-17T05:10:40;13.70;;;11.37;;
19414;SDS011;9843;48.882;12.592;2022-10-17T05:13:07;18.13;;;10.80;;
19414;SDS011;9843;48.882;12.592;2022-10-17T05:15:35;14.43;;;10.50;;
19414;SDS011;9843;48.882;12.592;2022-10-17T05:18:02;17.70;;;11.33;;
19414;SDS011;9843;48.882;12.592;2022-10-17T05:20:31;13.33;;;10.30;;
19414;SDS011;9843;48.882;12.592;2022-10-17T05:22:58;16.97;;;11.37;;
19414;SDS011;9843;48.882;12.592;2022-10-17T05:25:25;17.13;;;11.37;;
19414;SDS011;9843;48.882;12.592;2022-10-17T05:27:52;14.20;;;10.97;;
19414;SDS011;9843;48.882;12.592;2022-10-17T05:30:19;17.17;;;11.63;;
19414;SDS011;9843;48.882;12.592;2022-10-17T05:32:46;16.27;;;12.20;;
19414;SDS011;9843;48.882;12.592;2022-10-17T05:35:12;18.83;;;11.90;;
19414;SDS011;9843;48.882;12.592;2022-10-17T05:37:40;16.43;;;11.17;;
19414;SDS011;9843;48.882;12.592;2022-10-17T05:40:07;18.63;;;13.00;;
19414;SDS011;9843;48.882;12.592;2022-10-17T05:42:35;17.33;;;13.03;;
19414;SDS011;9843;48.882;12.592;2022-10-17T05:45:02;27.33;;;15.93;;
19414;SDS011;9843;48.882;12.592;2022-10-17T05:47:29;36.03;;;15.37;;
19414;SDS011;9843;48.882;12.592;2022-10-17T05:49:56;22.47;;;15.37;;
19414;SDS011;9843;48.882;12.592;2022-10-17T05:52:22;14.00;;;12.57;;
19414;SDS011;9843;48.882;12.592;2022-10-17T05:54:51;23.43;;;13.13;;
19414;SDS011;9843;48.882;12.592;2022-10-17T05:57:18;21.67;;;14.20;;
19414;SDS011;9843;48.882;12.592;2022-10-17T05:59:44;30.83;;;13.63;;
19414;SDS011;9843;48.882;12.592;2022-10-17T06:02:11;12.93;;;11.37;;
19414;SDS011;9843;48.882;12.592;2022-10-17T06:04:38;20.07;;;13.50;;
19414;SDS011;9843;48.882;12.592;2022-10-17T06:07:09;15.87;;;12.97;;
19414;SDS011;9843;48.882;12.592;2022-10-17T06:09:36;17.43;;;12.63;;
19414;SDS011;9843;48.882;12.592;2022-10-17T06:12:04;28.63;;;13.60;;
19414;SDS011;9843;48.882;12.592;2022-10-17T06:14:31;18.97;;;14.40;;
19414;SDS011;9843;48.882;12.592;2022-10-17T06:16:58;21.53;;;13.00;;
19414;SDS011;9843;48.882;12.592;2022-10-17T06:19:25;20.80;;;13.83;;
19414;SDS011;9843;48.882;12.592;2022-10-17T06:21:52;19.27;;;12.53;;
19414;SDS011;9843;48.882;12.592;2022-10-17T06:24:19;28.20;;;14.00;;
19414;SDS011;9843;48.882;12.592;2022-10-17T06:26:45;23.43;;;14.43;;
19414;SDS011;9843;48.882;12.592;2022-10-17T06:29:15;18.73;;;14.17;;
19414;SDS011;9843;48.882;12.592;2022-10-17T06:31:42;20.33;;;12.10;;
19414;SDS011;9843;48.882;12.592;2022-10-17T06:34:09;14.37;;;11.90;;
19414;SDS011;9843;48.882;12.592;2022-10-17T06:36:36;16.03;;;12.50;;
19414;SDS011;9843;48.882;12.592;2022-10-17T06:39:03;13.33;;;10.13;;
19414;SDS011;9843;48.882;12.592;2022-10-17T06:41:29;16.17;;;10.60;;
19414;SDS011;9843;48.882;12.592;2022-10-17T06:43:56;13.07;;;9.63;;
19414;SDS011;9843;48.882;12.592;2022-10-17T06:46:24;16.60;;;9.53;;
19414;SDS011;9843;48.882;12.592;2022-10-17T06:48:53;24.57;;;10.30;;
19414;SDS011;9843;48.882;12.592;2022-10-17T06:51:20;16.23;;;8.90;;
19414;SDS011;9843;48.882;12.592;2022-10-17T06:53:47;14.23;;;8.27;;
19414;SDS011;9843;48.882;12.592;2022-10-17T06:56:14;17.87;;;6.63;;
19414;SDS011;9843;48.882;12.592;2022-10-17T06:58:41;9.63;;;6.93;;
19414;SDS011;9843;48.882;12.592;2022-10-17T07:01:09;9.10;;;7.27;;
19414;SDS011;9843;48.882;12.592;2022-10-17T07:03:38;11.80;;;7.97;;
19414;SDS011;9843;48.882;12.592;2022-10-17T07:06:06;12.87;;;7.53;;
19414;SDS011;9843;48.882;12.592;2022-10-17T07:08:34;14.13;;;8.40;;
19414;SDS011;9843;48.882;12.592;2022-10-17T07:11:07;9.20;;;6.33;;
19414;SDS011;9843;48.882;12.592;2022-10-17T07:13:34;12.20;;;6.83;;
19414;SDS011;9843;48.882;12.592;2022-10-17T07:16:01;23.47;;;10.23;;
19414;SDS011;9843;48.882;12.592;2022-10-17T07:20:59;12.17;;;8.80;;
19414;SDS011;9843;48.882;12.592;2022-10-17T07:23:27;10.30;;;7.70;;
19414;SDS011;9843;48.882;12.592;2022-10-17T07:25:57;10.10;;;6.53;;
19414;SDS011;9843;48.882;12.592;2022-10-17T07:28:25;15.10;;;7.73;;
19414;SDS011;9843;48.882;12.592;2022-10-17T07:30:52;13.03;;;7.30;;
19414;SDS011;9843;48.882;12.592;2022-10-17T07:33:19;14.50;;;7.17;;
19414;SDS011;9843;48.882;12.592;2022-10-17T07:35:46;10.40;;;8.03;;
19414;SDS011;9843;48.882;12.592;2022-10-17T07:38:14;7.20;;;6.30;;
19414;SDS011;9843;48.882;12.592;2022-10-17T07:40:41;15.23;;;8.27;;
19414;SDS011;9843;48.882;12.592;2022-10-17T07:43:07;10.77;;;7.03;;
19414;SDS011;9843;48.882;12.592;2022-10-17T07:45:34;10.53;;;7.37;;
19414;SDS011;9843;48.882;12.592;2022-10-17T07:48:01;8.63;;;7.23;;
19414;SDS011;9843;48.882;12.592;2022-10-17T07:50:28;11.03;;;8.23;;
19414;SDS011;9843;48.882;12.592;2022-10-17T07:52:55;10.27;;;7.93;;
19414;SDS011;9843;48.882;12.592;2022-10-17T07:55:23;11.97;;;9.37;;
19414;SDS011;9843;48.882;12.592;2022-10-17T07:57:50;12.53;;;7.80;;
19414;SDS011;9843;48.882;12.592;2022-10-17T08:00:17;12.77;;;8.73;;
19414;SDS011;9843;48.882;12.592;2022-10-17T08:02:44;14.23;;;10.10;;
19414;SDS011;9843;48.882;12.592;2022-10-17T08:05:11;15.40;;;9.47;;
19414;SDS011;9843;48.882;12.592;2022-10-17T08:07:37;12.97;;;11.33;;
19414;SDS011;9843;48.882;12.592;2022-10-17T08:10:06;15.77;;;10.93;;
19414;SDS011;9843;48.882;12.592;2022-10-17T08:12:34;13.93;;;12.07;;
19414;SDS011;9843;48.882;12.592;2022-10-17T08:15:01;20.13;;;14.50;;
19414;SDS011;9843;48.882;12.592;2022-10-17T08:17:28;14.63;;;11.10;;
19414;SDS011;9843;48.882;12.592;2022-10-17T08:19:55;16.70;;;10.23;;
19414;SDS011;9843;48.882;12.592;2022-10-17T08:22:22;14.07;;;11.50;;
19414;SDS011;9843;48.882;12.592;2022-10-17T08:24:49;14.77;;;11.97;;
19414;SDS011;9843;48.882;12.592;2022-10-17T08:27:16;17.47;;;13.33;;
19414;SDS011;9843;48.882;12.592;2022-10-17T08:29:49;15.77;;;11.60;;
19414;SDS011;9843;48.882;12.592;2022-10-17T08:32:17;15.73;;;12.20;;
19414;SDS011;9843;48.882;12.592;2022-10-17T08:34:44;18.03;;;14.93;;
19414;SDS011;9843;48.882;12.592;2022-10-17T08:37:11;21.33;;;16.00;;
19414;SDS011;9843;48.882;12.592;2022-10-17T08:39:38;23.00;;;14.27;;
19414;SDS011;9843;48.882;12.592;2022-10-17T08:42:10;19.23;;;16.17;;
19414;SDS011;9843;48.882;12.592;2022-10-17T08:44:58;19.80;;;15.27;;
19414;SDS011;9843;48.882;12.592;2022-10-17T08:47:36;16.30;;;13.03;;
19414;SDS011;9843;48.882;12.592;2022-10-17T08:50:05;17.90;;;13.93;;
19414;SDS011;9843;48.882;12.592;2022-10-17T08:52:38;16.47;;;14.67;;
19414;SDS011;9843;48.882;12.592;2022-10-17T08:55:12;17.30;;;13.37;;
19414;SDS011;9843;48.882;12.592;2022-10-17T08:57:41;14.57;;;13.17;;
19414;SDS011;9843;48.882;12.592;2022-10-17T09:00:12;28.60;;;16.80;;
19414;SDS011;9843;48.882;12.592;2022-10-17T09:02:45;18.30;;;16.03;;
19414;SDS011;9843;48.882;12.592;2022-10-17T09:05:27;22.43;;;16.63;;
19414;SDS011;9843;48.882;12.592;2022-10-17T09:08:09;16.67;;;14.00;;
19414;SDS011;9843;48.882;12.592;2022-10-17T09:10:48;15.27;;;13.63;;
19414;SDS011;9843;48.882;12.592;2022-10-17T09:13:24;18.77;;;15.50;;
19414;SDS011;9843;48.882;12.592;2022-10-17T09:16:09;16.57;;;13.80;;
19414;SDS011;9843;48.882;12.592;2022-10-17T09:18:51;15.60;;;12.33;;
19414;SDS011;9843;48.882;12.592;2022-10-17T09:21:24;17.13;;;15.33;;
19414;SDS011;9843;48.882;12.592;2022-10-17T09:23:59;18.47;;;15.87;;
19414;SDS011;9843;48.882;12.592;2022-10-17T09:26:28;16.27;;;13.97;;
19414;SDS011;9843;48.882;12.592;2022-10-17T09:28:56;15.30;;;13.70;;
19414;SDS011;9843;48.882;12.592;2022-10-17T09:31:28;16.70;;;14.87;;
19414;SDS011;9843;48.882;12.592;2022-10-17T09:33:59;18.30;;;15.00;;
19414;SDS011;9843;48.882;12.592;2022-10-17T09:36:29;14.65;;;13.15;;
19414;SDS011;9843;48.882;12.592;2022-10-17T09:38:57;15.75;;;13.38;;
19414;SDS011;9843;48.882;12.592;2022-10-17T09:41:26;18.15;;;14.32;;
19414;SDS011;9843;48.882;12.592;2022-10-17T09:43:59;19.63;;;15.77;;
19414;SDS011;9843;48.882;12.592;2022-10-17T09:46:41;25.38;;;15.98;;
19414;SDS011;9843;48.882;12.592;2022-10-17T09:49:14;18.02;;;16.15;;
19414;SDS011;9843;48.882;12.592;2022-10-17T09:51:43;19.55;;;16.40;;
19414;SDS011;9843;48.882;12.592;2022-10-17T09:54:12;18.55;;;15.25;;
19414;SDS011;9843;48.882;12.592;2022-10-17T09:56:58;21.50;;;17.67;;
19414;SDS011;9843;48.882;12.592;2022-10-17T09:59:30;18.50;;;16.50;;
19414;SDS011;9843;48.882;12.592;2022-10-17T10:02:14;18.63;;;16.53;;
19414;SDS011;9843;48.882;12.592;2022-10-17T10:04:50;18.77;;;16.77;;
19414;SDS011;9843;48.882;12.592;2022-10-17T10:07:18;21.97;;;18.10;;
19414;SDS011;9843;48.882;12.592;2022-10-17T10:09:47;20.07;;;16.00;;
19414;SDS011;9843;48.882;12.592;2022-10-17T10:12:15;18.63;;;16.37;;
19414;SDS011;9843;48.882;12.592;2022-10-17T10:14:44;19.30;;;16.30;;
19414;SDS011;9843;48.882;12.592;2022-10-17T10:17:25;20.53;;;18.13;;
19414;SDS011;9843;48.882;12.592;2022-10-17T10:20:00;24.97;;;17.73;;
19414;SDS011;9843;48.882;12.592;2022-10-17T10:22:29;21.08;;;17.50;;
19414;SDS011;9843;48.882;12.592;2022-10-17T10:25:11;20.15;;;15.55;;
19414;SDS011;9843;48.882;12.592;2022-10-17T10:27:42;19.88;;;17.00;;
19414;SDS011;9843;48.882;12.592;2022-10-17T10:30:15;19.50;;;14.93;;
19414;SDS011;9843;48.882;12.592;2022-10-17T10:32:46;17.55;;;14.55;;
19414;SDS011;9843;48.882;12.592;2022-10-17T10:35:18;16.60;;;14.85;;
19414;SDS011;9843;48.882;12.592;2022-10-17T10:37:48;17.90;;;13.95;;
19414;SDS011;9843;48.882;12.592;2022-10-17T10:40:17;16.85;;;15.05;;
19414;SDS011;9843;48.882;12.592;2022-10-17T10:42:46;17.67;;;14.10;;
19414;SDS011;9843;48.882;12.592;2022-10-17T10:45:15;15.80;;;13.95;;
19414;SDS011;9843;48.882;12.592;2022-10-17T10:47:51;13.45;;;11.45;;
19414;SDS011;9843;48.882;12.592;2022-10-17T10:50:21;18.58;;;14.07;;
19414;SDS011;9843;48.882;12.592;2022-10-17T10:52:55;20.23;;;15.98;;
19414;SDS011;9843;48.882;12.592;2022-10-17T10:55:31;15.95;;;13.35;;
19414;SDS011;9843;48.882;12.592;2022-10-17T10:58:02;14.70;;;13.05;;
19414;SDS011;9843;48.882;12.592;2022-10-17T11:00:40;17.13;;;14.45;;
19414;SDS011;9843;48.882;12.592;2022-10-17T11:03:10;20.13;;;14.25;;
19414;SDS011;9843;48.882;12.592;2022-10-17T11:05:42;13.88;;;12.48;;
19414;SDS011;9843;48.882;12.592;2022-10-17T11:08:17;12.88;;;11.60;;
19414;SDS011;9843;48.882;12.592;2022-10-17T11:11:01;14.45;;;13.00;;
19414;SDS011;9843;48.882;12.592;2022-10-17T11:13:39;13.77;;;11.40;;
19414;SDS011;9843;48.882;12.592;2022-10-17T11:16:14;11.95;;;10.40;;
19414;SDS011;9843;48.882;12.592;2022-10-17T11:18:49;14.05;;;11.77;;
19414;SDS011;9843;48.882;12.592;2022-10-17T11:21:25;10.77;;;9.65;;
19414;SDS011;9843;48.882;12.592;2022-10-17T11:24:01;10.80;;;9.77;;
19414;SDS011;9843;48.882;12.592;2022-10-17T11:26:32;12.75;;;11.52;;
19414;SDS011;9843;48.882;12.592;2022-10-17T11:29:05;11.20;;;9.70;;
19414;SDS011;9843;48.882;12.592;2022-10-17T11:31:36;11.02;;;9.05;;
19414;SDS011;9843;48.882;12.592;2022-10-17T11:34:09;8.90;;;8.00;;
19414;SDS011;9843;48.882;12.592;2022-10-17T11:36:43;8.95;;;8.05;;
19414;SDS011;9843;48.882;12.592;2022-10-17T11:39:16;21.00;;;10.52;;
19414;SDS011;9843;48.882;12.592;2022-10-17T11:41:47;14.02;;;10.23;;
19414;SDS011;9843;48.882;12.592;2022-10-17T11:44:19;9.82;;;8.82;;
19414;SDS011;9843;48.882;12.592;2022-10-17T11:46:51;10.50;;;8.23;;
19414;SDS011;9843;48.882;12.592;2022-10-17T11:49:24;9.80;;;7.32;;
19414;SDS011;9843;48.882;12.592;2022-10-17T11:51:56;11.75;;;8.95;;
19414;SDS011;9843;48.882;12.592;2022-10-17T11:54:32;15.82;;;9.85;;
19414;SDS011;9843;48.882;12.592;2022-10-17T11:57:09;10.38;;;9.38;;
19414;SDS011;9843;48.882;12.592;2022-10-17T11:59:53;16.00;;;9.10;;
19414;SDS011;9843;48.882;12.592;2022-10-17T12:02:30;9.35;;;7.30;;
19414;SDS011;9843;48.882;12.592;2022-10-17T12:05:08;10.80;;;9.65;;
19414;SDS011;9843;48.882;12.592;2022-10-17T12:07:44;12.45;;;9.25;;
19414;SDS011;9843;48.882;12.592;2022-10-17T12:10:28;12.98;;;10.02;;
19414;SDS011;9843;48.882;12.592;2022-10-17T12:19:18;13.77;;;9.18;;
19414;SDS011;9843;48.882;12.592;2022-10-17T12:21:59;13.38;;;10.55;;
19414;SDS011;9843;48.882;12.592;2022-10-17T12:24:33;11.75;;;9.10;;
19414;SDS011;9843;48.882;12.592;2022-10-17T12:30:14;10.45;;;8.68;;
19414;SDS011;9843;48.882;12.592;2022-10-17T12:33:03;10.07;;;8.48;;
19414;SDS011;9843;48.882;12.592;2022-10-17T12:35:48;11.52;;;9.68;;
19414;SDS011;9843;48.882;12.592;2022-10-17T12:38:21;8.38;;;7.50;;
19414;SDS011;9843;48.882;12.592;2022-10-17T12:40:51;11.27;;;9.85;;
19414;SDS011;9843;48.882;12.592;2022-10-17T12:49:20;15.15;;;9.48;;
19414;SDS011;9843;48.882;12.592;2022-10-17T12:55:17;11.30;;;9.57;;
19414;SDS011;9843;48.882;12.592;2022-10-17T12:57:53;19.02;;;11.05;;
19414;SDS011;9843;48.882;12.592;2022-10-17T13:00:24;12.88;;;8.50;;
19414;SDS011;9843;48.882;12.592;2022-10-17T13:03:00;13.15;;;9.90;;
19414;SDS011;9843;48.882;12.592;2022-10-17T13:05:33;21.15;;;10.70;;
19414;SDS011;9843;48.882;12.592;2022-10-17T13:08:01;14.15;;;9.45;;
19414;SDS011;9843;48.882;12.592;2022-10-17T13:10:32;17.40;;;8.98;;
19414;SDS011;9843;48.882;12.592;2022-10-17T13:13:07;11.88;;;8.38;;
19414;SDS011;9843;48.882;12.592;2022-10-17T13:15:39;14.73;;;9.32;;
19414;SDS011;9843;48.882;12.592;2022-10-17T13:18:13;18.77;;;12.70;;
19414;SDS011;9843;48.882;12.592;2022-10-17T13:20:52;17.95;;;11.15;;
19414;SDS011;9843;48.882;12.592;2022-10-17T13:23:21;13.20;;;8.55;;
19414;SDS011;9843;48.882;12.592;2022-10-17T13:26:01;16.38;;;10.75;;
19414;SDS011;9843;48.882;12.592;2022-10-17T13:28:29;10.90;;;9.75;;
19414;SDS011;9843;48.882;12.592;2022-10-17T13:30:56;12.43;;;10.68;;
19414;SDS011;9843;48.882;12.592;2022-10-17T13:33:28;16.98;;;11.48;;
19414;SDS011;9843;48.882;12.592;2022-10-17T13:35:57;10.07;;;8.73;;
19414;SDS011;9843;48.882;12.592;2022-10-17T13:38:25;10.80;;;8.57;;
19414;SDS011;9843;48.882;12.592;2022-10-17T13:40:53;12.45;;;9.20;;
19414;SDS011;9843;48.882;12.592;2022-10-17T13:43:22;11.30;;;9.00;;
19414;SDS011;9843;48.882;12.592;2022-10-17T13:45:50;19.65;;;9.30;;
19414;SDS011;9843;48.882;12.592;2022-10-17T13:48:19;10.60;;;9.23;;
19414;SDS011;9843;48.882;12.592;2022-10-17T13:50:50;12.43;;;9.27;;
19414;SDS011;9843;48.882;12.592;2022-10-17T13:53:21;12.02;;;6.80;;
19414;SDS011;9843;48.882;12.592;2022-10-17T13:55:51;15.50;;;10.60;;
19414;SDS011;9843;48.882;12.592;2022-10-17T13:58:20;12.98;;;8.77;;
19414;SDS011;9843;48.882;12.592;2022-10-17T14:00:49;12.07;;;9.90;;
19414;SDS011;9843;48.882;12.592;2022-10-17T14:03:18;16.47;;;9.07;;
19414;SDS011;9843;48.882;12.592;2022-10-17T14:05:59;12.02;;;8.35;;
19414;SDS011;9843;48.882;12.592;2022-10-17T14:08:38;13.45;;;9.63;;
19414;SDS011;9843;48.882;12.592;2022-10-17T14:11:17;14.73;;;9.05;;
19414;SDS011;9843;48.882;12.592;2022-10-17T14:13:50;22.33;;;14.40;;
19414;SDS011;9843;48.882;12.592;2022-10-17T14:16:19;14.67;;;11.07;;
19414;SDS011;9843;48.882;12.592;2022-10-17T14:18:47;15.17;;;8.97;;
19414;SDS011;9843;48.882;12.592;2022-10-17T14:21:19;15.03;;;9.70;;
19414;SDS011;9843;48.882;12.592;2022-10-17T14:23:48;19.10;;;12.13;;
19414;SDS011;9843;48.882;12.592;2022-10-17T14:26:16;10.93;;;8.97;;
19414;SDS011;9843;48.882;12.592;2022-10-17T14:28:46;15.20;;;8.87;;
19414;SDS011;9843;48.882;12.592;2022-10-17T14:31:23;10.73;;;8.60;;
19414;SDS011;9843;48.882;12.592;2022-10-17T14:33:54;15.53;;;10.53;;
19414;SDS011;9843;48.882;12.592;2022-10-17T14:36:29;11.17;;;9.30;;
19414;SDS011;9843;48.882;12.592;2022-10-17T14:38:58;17.50;;;10.97;;
19414;SDS011;9843;48.882;12.592;2022-10-17T14:41:26;16.30;;;12.60;;
19414;SDS011;9843;48.882;12.592;2022-10-17T14:43:56;13.80;;;10.83;;
19414;SDS011;9843;48.882;12.592;2022-10-17T14:46:27;13.70;;;11.33;;
19414;SDS011;9843;48.882;12.592;2022-10-17T14:48:54;19.57;;;12.13;;
19414;SDS011;9843;48.882;12.592;2022-10-17T14:51:23;16.20;;;10.00;;
19414;SDS011;9843;48.882;12.592;2022-10-17T14:54:01;14.90;;;9.70;;
19414;SDS011;9843;48.882;12.592;2022-10-17T14:56:34;12.43;;;8.83;;
19414;SDS011;9843;48.882;12.592;2022-10-17T14:59:04;9.43;;;7.27;;
19414;SDS011;9843;48.882;12.592;2022-10-17T15:01:33;9.47;;;8.33;;
19414;SDS011;9843;48.882;12.592;2022-10-17T15:04:00;9.90;;;8.90;;
19414;SDS011;9843;48.882;12.592;2022-10-17T15:06:28;10.63;;;8.53;;
19414;SDS011;9843;48.882;12.592;2022-10-17T15:08:57;22.90;;;10.23;;